Time;durP1;ratioP1;P1;durP2;ratioP2;P2;SDS_P1;SDS_P2;PMS_P1;PMS_P2;Temp;Humidity;BMP_temperature;BMP_pressure;BME280_temperature;BME280_humidity;BME280_pressure;Samples;Min_cycle;Max_cycle;Signal;HPM_P1;HPM_P2
2022/07/11 00:01:35;;;;;;;6.35;5.70;;;19.20;99.90;;;19.83;81.46;102358.09;5054744;28;20140;-61
2022/07/11 00:04:03;;;;;;;7.57;6.53;;;19.30;99.90;;;19.82;81.04;102361.72;5054640;28;20045;-61
2022/07/11 00:06:32;;;;;;;6.85;5.88;;;19.30;99.90;;;19.88;80.90;102366.94;5053536;28;20107;-60
2022/07/11 00:09:00;;;;;;;7.95;7.15;;;19.30;99.90;;;19.81;80.73;102357.25;5054430;28;20052;-61
2022/07/11 00:11:28;;;;;;;7.88;6.97;;;19.30;99.90;;;19.82;80.75;102355.44;5054433;28;20049;-61
2022/07/11 00:13:58;;;;;;;8.00;7.25;;;19.30;99.90;;;19.76;80.75;102356.47;5054729;28;20036;-60
2022/07/11 00:16:27;;;;;;;10.68;7.03;;;19.30;99.90;;;19.69;80.87;102344.94;5054395;28;20114;-60
2022/07/11 00:18:55;;;;;;;8.32;7.40;;;19.30;99.90;;;19.83;80.79;102359.91;5054317;28;20564;-60
2022/07/11 00:21:23;;;;;;;8.05;6.97;;;19.30;99.90;;;19.85;80.74;102355.38;5054536;28;20072;-61
2022/07/11 00:23:51;;;;;;;9.95;7.50;;;19.30;99.90;;;19.92;80.30;102352.53;5054562;28;20051;-60
2022/07/11 00:26:20;;;;;;;9.25;6.53;;;19.40;99.90;;;20.04;80.26;102357.69;5054187;28;20092;-60
2022/07/11 00:28:48;;;;;;;7.95;6.55;;;19.50;99.90;;;20.15;80.06;102358.34;5054495;28;20048;-60
2022/07/11 00:31:18;;;;;;;8.18;7.00;;;19.60;99.90;;;20.12;80.03;102353.06;5054085;28;20056;-60
2022/07/11 00:33:46;;;;;;;8.63;6.80;;;19.70;99.90;;;20.19;79.88;102351.19;5054010;28;20135;-60
2022/07/11 00:36:14;;;;;;;8.88;6.60;;;19.70;99.90;;;20.22;79.84;102353.78;5053911;28;20115;-61
2022/07/11 00:38:43;;;;;;;9.68;7.28;;;19.80;99.90;;;20.28;79.86;102351.88;5052892;28;20045;-61
2022/07/11 00:41:11;;;;;;;7.95;6.03;;;19.80;99.90;;;20.24;80.26;102352.84;5054044;28;20041;-62
2022/07/11 00:43:41;;;;;;;7.47;5.60;;;19.80;99.90;;;20.36;80.13;102349.88;5053912;28;20072;-60
2022/07/11 00:46:12;;;;;;;7.13;6.20;;;19.90;99.90;;;20.36;79.90;102352.56;5053799;28;20052;-60
2022/07/11 00:48:42;;;;;;;6.40;5.60;;;19.90;99.90;;;20.35;79.71;102350.81;5053741;28;20049;-61
2022/07/11 00:51:10;;;;;;;6.17;5.60;;;19.90;99.90;;;20.31;79.70;102356.28;5053848;28;20470;-60
2022/07/11 00:53:41;;;;;;;6.65;5.60;;;19.90;99.90;;;20.35;79.76;102342.75;5052751;28;20493;-61
2022/07/11 00:56:11;;;;;;;6.30;5.53;;;19.90;99.90;;;20.38;79.60;102345.34;5053829;28;20106;-61
2022/07/11 00:58:39;;;;;;;6.70;6.07;;;19.90;99.90;;;20.39;80.48;102344.47;5053914;28;20068;-61
2022/07/11 01:01:08;;;;;;;8.00;5.70;;;19.90;99.90;;;20.55;80.45;102355.78;5053806;28;20406;-61
2022/07/11 01:03:39;;;;;;;5.70;5.07;;;20.00;99.90;;;20.50;80.60;102347.78;5053041;28;20052;-61
2022/07/11 01:06:10;;;;;;;7.93;5.57;;;20.00;99.90;;;20.46;80.80;102351.47;5053480;28;20045;-61
2022/07/11 01:08:40;;;;;;;10.10;6.13;;;20.00;99.90;;;20.38;80.64;102331.91;5053418;28;20102;-61
2022/07/11 01:11:12;;;;;;;10.25;5.95;;;20.00;99.90;;;20.60;80.40;102359.22;5053397;28;20131;-60
2022/07/11 01:13:41;;;;;;;8.45;5.78;;;20.10;99.90;;;20.54;80.37;102349.50;5053265;28;20052;-60
2022/07/11 01:16:15;;;;;;;7.65;5.70;;;20.10;99.90;;;20.58;80.66;102358.38;5053297;28;20049;-61
2022/07/11 01:18:46;;;;;;;7.85;5.65;;;20.10;99.90;;;20.58;80.66;102348.50;5053346;28;20049;-61
2022/07/11 01:21:28;;;;;;;8.93;6.18;;;20.10;99.90;;;20.63;81.04;102354.66;5053403;28;20068;-60
2022/07/11 01:24:01;;;;;;;13.82;6.30;;;20.10;99.90;;;20.74;81.27;102356.22;5052246;28;20155;-60
2022/07/11 01:26:32;;;;;;;7.75;5.60;;;20.20;99.90;;;20.75;81.72;102347.25;5053446;28;20078;-61
2022/07/11 01:29:07;;;;;;;8.57;5.93;;;20.20;99.90;;;20.74;82.08;102346.38;5053101;28;20073;-61
2022/07/11 01:31:39;;;;;;;9.43;6.10;;;20.20;99.90;;;20.74;82.30;102346.38;5053174;28;20510;-60
2022/07/11 01:34:08;;;;;;;7.78;5.97;;;20.20;99.90;;;20.72;82.12;102347.31;5053392;28;20049;-60
2022/07/11 01:36:36;;;;;;;10.82;5.28;;;20.20;99.90;;;20.73;81.67;102343.72;5052986;28;20047;-61
2022/07/11 01:39:06;;;;;;;11.20;6.25;;;20.20;99.90;;;20.75;81.12;102349.94;5053549;28;20049;-61
2022/07/11 01:41:35;;;;;;;12.80;5.63;;;20.30;99.90;;;20.79;80.88;102346.28;5053048;28;20156;-61
2022/07/11 01:44:03;;;;;;;10.77;5.25;;;20.30;99.90;;;20.75;80.94;102339.19;5052940;28;20390;-61
2022/07/11 01:46:31;;;;;;;11.88;5.90;;;20.30;99.90;;;20.75;81.13;102344.56;5052090;28;20052;-60
2022/07/11 01:49:00;;;;;;;12.15;6.03;;;20.30;99.90;;;20.86;81.68;102348.78;5052781;28;20044;-60
2022/07/11 01:51:29;;;;;;;8.70;5.38;;;20.40;99.90;;;20.83;81.45;102345.28;5053144;28;20079;-61
2022/07/11 01:53:58;;;;;;;7.30;5.10;;;20.30;99.90;;;20.87;81.08;102341.56;5052811;28;20047;-60
2022/07/11 01:56:29;;;;;;;7.78;5.07;;;20.40;99.90;;;20.82;81.10;102340.81;5051798;28;20453;-60
2022/07/11 01:59:01;;;;;;;9.43;4.68;;;20.40;99.90;;;20.91;80.92;102341.47;5051895;28;20053;-60
2022/07/11 02:01:29;;;;;;;9.93;5.00;;;20.40;99.90;;;21.01;80.76;102347.56;5053121;28;20114;-60
2022/07/11 02:03:58;;;;;;;8.77;4.88;;;20.50;99.90;;;20.97;81.04;102341.34;5053212;28;20048;-60
2022/07/11 02:06:26;;;;;;;10.98;4.57;;;20.50;99.90;;;21.00;80.85;102341.25;5052732;28;20133;-61
2022/07/11 02:08:55;;;;;;;8.98;4.40;;;20.50;99.90;;;21.04;80.26;102344.81;5052905;28;20549;-61
2022/07/11 02:11:23;;;;;;;9.30;4.10;;;20.50;99.90;;;20.97;79.87;102337.75;5052914;28;20047;-61
2022/07/11 02:13:53;;;;;;;7.43;4.22;;;20.50;99.90;;;20.98;79.33;102331.47;5054613;28;20049;-62
2022/07/11 02:16:22;;;;;;;5.77;4.07;;;20.50;99.90;;;20.95;79.44;102324.34;5056703;28;20072;-61
2022/07/11 02:18:50;;;;;;;7.72;3.92;;;20.50;99.90;;;21.05;79.51;102341.19;5056908;28;20041;-60
2022/07/11 02:21:19;;;;;;;7.68;3.60;;;20.60;99.90;;;21.06;79.75;102341.13;5056525;28;20055;-61
2022/07/11 02:23:47;;;;;;;6.00;4.07;;;20.50;99.90;;;21.04;79.53;102342.97;5056480;28;20044;-61
2022/07/11 02:26:15;;;;;;;5.80;3.47;;;20.50;99.90;;;21.15;78.99;102337.34;5056598;28;20489;-61
2022/07/11 02:28:44;;;;;;;6.18;3.83;;;20.60;99.90;;;21.18;78.08;102337.25;5056831;28;20049;-61
2022/07/11 02:31:14;;;;;;;8.77;4.07;;;20.70;99.90;;;21.17;78.31;102336.41;5056389;28;20521;-60
2022/07/11 02:33:43;;;;;;;9.15;3.90;;;20.70;99.90;;;21.02;78.94;102341.28;5057462;28;20132;-61
2022/07/11 02:36:13;;;;;;;7.68;3.75;;;20.60;99.90;;;20.63;79.92;102286.56;5056663;28;20390;-61
2022/07/11 02:38:43;;;;;;;7.65;4.07;;;20.50;99.90;;;21.02;79.50;102341.28;5055492;28;20509;-61
2022/07/11 02:41:12;;;;;;;6.25;3.80;;;20.50;99.90;;;21.10;79.05;102339.28;5056312;28;20103;-61
2022/07/11 02:43:40;;;;;;;8.18;3.78;;;20.60;99.90;;;20.98;78.97;102337.72;5056134;28;20047;-61
2022/07/11 02:46:09;;;;;;;6.30;3.92;;;20.50;99.90;;;20.94;78.53;102335.16;5056105;28;20041;-61
2022/07/11 02:48:38;;;;;;;4.35;3.30;;;20.40;99.90;;;20.97;78.89;102335.06;5056621;28;20037;-61
2022/07/11 02:51:07;;;;;;;5.20;3.55;;;20.50;99.90;;;20.86;79.21;102340.72;5056086;28;20461;-61
2022/07/11 02:53:35;;;;;;;6.88;4.20;;;20.40;99.90;;;20.90;79.33;102338.84;5056408;28;20136;-61
2022/07/11 02:56:05;;;;;;;6.22;3.88;;;20.40;99.90;;;20.89;80.00;102339.72;5055929;28;20090;-61
2022/07/11 02:58:33;;;;;;;7.60;3.80;;;20.30;99.90;;;20.79;80.53;102336.38;5056455;28;20037;-60
2022/07/11 03:01:01;;;;;;;7.35;3.70;;;20.30;99.90;;;20.72;80.71;102323.09;5054979;28;20084;-61
2022/07/11 03:03:30;;;;;;;5.57;3.17;;;20.30;99.90;;;20.91;79.81;102332.50;5055801;28;20043;-61
2022/07/11 03:06:00;;;;;;;7.72;3.60;;;20.40;99.90;;;20.95;79.72;102339.59;5056281;28;20045;-61
2022/07/11 03:08:28;;;;;;;8.57;3.97;;;20.50;99.90;;;20.70;79.95;102328.53;5055759;28;20380;-61
2022/07/11 03:10:57;;;;;;;6.13;4.20;;;20.40;99.90;;;20.54;81.21;102336.06;5055584;28;20045;-61
2022/07/11 03:13:32;;;;;;;6.38;4.03;;;20.20;99.90;;;20.61;81.10;102332.28;5055709;28;20478;-61
2022/07/11 03:16:01;;;;;;;6.97;4.30;;;20.10;99.90;;;20.79;80.15;102327.44;5055813;28;20520;-60
2022/07/11 03:18:30;;;;;;;7.40;3.72;;;20.30;99.90;;;20.54;80.76;102327.09;5056097;28;20562;-61
2022/07/11 03:20:59;;;;;;;10.15;3.90;;;20.10;99.90;;;20.42;82.00;102322.00;5055438;28;20072;-61
2022/07/11 03:23:28;;;;;;;6.30;3.67;;;20.00;99.90;;;20.46;81.14;102329.94;5055696;28;20392;-61
2022/07/11 03:25:56;;;;;;;4.38;3.20;;;20.00;99.90;;;20.33;81.61;102324.88;5054699;28;20044;-61
2022/07/11 03:28:24;;;;;;;5.07;3.55;;;19.90;99.90;;;20.44;81.65;102339.84;5055375;28;20490;-60
2022/07/11 03:30:53;;;;;;;8.10;3.85;;;20.00;99.90;;;20.37;81.12;102335.53;5055232;28;20047;-61
2022/07/11 03:33:21;;;;;;;4.78;3.50;;;20.00;99.90;;;20.36;80.98;102320.31;5055313;28;20135;-60
2022/07/11 03:35:50;;;;;;;6.20;3.40;;;20.00;99.90;;;20.57;80.30;102333.31;5055234;28;20458;-60
2022/07/11 03:38:21;;;;;;;9.73;3.95;;;20.10;99.90;;;20.35;80.87;102326.63;5055506;28;20041;-62
2022/07/11 03:40:49;;;;;;;3.75;3.15;;;20.00;99.90;;;20.52;80.75;102328.94;5055815;28;20098;-61
2022/07/11 03:43:18;;;;;;;4.15;3.08;;;20.00;99.90;;;20.45;80.16;102332.69;5055202;28;20041;-60
2022/07/11 03:45:47;;;;;;;5.40;3.03;;;20.00;99.90;;;20.61;79.75;102340.38;5055687;28;20053;-60
2022/07/11 03:48:15;;;;;;;4.53;3.15;;;20.10;99.90;;;20.65;78.87;102346.59;5055352;28;20043;-61
2022/07/11 03:50:43;;;;;;;7.60;3.00;;;20.20;99.90;;;20.73;78.25;102341.03;5054857;28;20111;-60
2022/07/11 03:53:12;;;;;;;3.90;2.95;;;20.40;99.90;;;20.66;78.14;102345.66;5055359;28;20175;-61
2022/07/11 03:55:42;;;;;;;4.53;3.10;;;20.30;99.90;;;20.71;78.31;102338.38;5055187;28;20402;-61
2022/07/11 03:58:10;;;;;;;3.55;2.97;;;20.30;99.90;;;20.77;78.01;102345.44;5055200;28;20446;-61
2022/07/11 04:00:39;;;;;;;6.47;3.17;;;20.40;99.90;;;20.77;77.94;102345.44;5054737;28;20041;-60
2022/07/11 04:03:07;;;;;;;3.28;2.97;;;20.30;99.90;;;20.81;77.78;102326.47;5055053;28;20087;-60
2022/07/11 04:05:36;;;;;;;5.90;3.40;;;20.40;99.90;;;20.86;77.24;102338.03;5055032;28;20045;-61
2022/07/11 04:08:05;;;;;;;4.18;3.42;;;20.40;99.90;;;20.92;76.89;102339.69;5054954;28;20068;-60
2022/07/11 04:10:33;;;;;;;6.85;3.13;;;20.50;99.90;;;21.03;76.56;102341.22;5055079;28;20048;-60
2022/07/11 04:13:03;;;;;;;4.75;3.08;;;20.60;99.90;;;20.98;76.73;102336.84;5054671;28;20049;-61
2022/07/11 04:15:31;;;;;;;3.67;2.90;;;20.60;99.90;;;21.05;76.62;102343.88;5054702;28;20455;-61
2022/07/11 04:17:59;;;;;;;3.60;3.03;;;20.60;99.90;;;21.11;76.22;102346.44;5054421;28;20133;-60
2022/07/11 04:20:28;;;;;;;4.80;3.60;;;20.70;99.90;;;21.13;76.09;102355.34;5054358;28;20063;-61
2022/07/11 04:22:56;;;;;;;6.60;3.42;;;20.70;99.90;;;21.18;75.83;102348.94;5054289;28;20123;-61
2022/07/11 04:25:25;;;;;;;6.72;3.33;;;20.80;99.90;;;21.21;75.69;102346.19;5054753;28;20120;-61
2022/07/11 04:27:53;;;;;;;4.60;2.72;;;20.80;99.90;;;21.18;75.82;102353.41;5053388;28;20143;-61
2022/07/11 04:30:23;;;;;;;6.60;3.28;;;20.80;99.90;;;21.24;75.80;102350.56;5054072;28;20040;-61
2022/07/11 04:32:51;;;;;;;7.57;3.65;;;20.80;99.90;;;21.30;75.51;102345.94;5054248;28;20033;-60
2022/07/11 04:35:19;;;;;;;4.13;3.17;;;20.90;99.90;;;21.26;75.57;102356.81;5054682;28;20068;-61
2022/07/11 04:37:48;;;;;;;3.53;3.08;;;20.80;99.90;;;21.27;75.47;102343.31;5052103;28;20059;-60
2022/07/11 04:40:17;;;;;;;4.43;3.15;;;20.80;99.90;;;21.28;75.26;102347.78;5054336;28;20123;-61
2022/07/11 04:42:45;;;;;;;3.55;3.20;;;20.90;99.90;;;21.33;75.25;102347.69;5054290;28;20372;-61
2022/07/11 04:45:14;;;;;;;4.40;3.05;;;20.90;99.90;;;21.38;75.01;102341.25;5054526;28;20072;-61
2022/07/11 04:47:43;;;;;;;4.90;3.45;;;21.00;99.90;;;21.34;74.99;102349.44;5053911;28;20043;-61
2022/07/11 04:50:12;;;;;;;8.35;4.10;;;20.90;99.90;;;21.36;74.98;102352.97;5054113;28;20045;-61
2022/07/11 04:52:42;;;;;;;4.30;3.03;;;21.00;99.90;;;21.30;74.90;102345.94;5053980;28;20401;-60
2022/07/11 04:55:10;;;;;;;4.80;3.08;;;20.90;99.90;;;21.26;75.14;102335.28;5054367;28;20073;-60
2022/07/11 04:57:39;;;;;;;4.28;3.88;;;20.90;99.90;;;21.35;75.08;102345.84;5053617;28;20414;-61
2022/07/11 05:00:08;;;;;;;5.07;3.67;;;20.90;99.90;;;21.36;75.18;102352.97;5054130;28;20140;-60
2022/07/11 05:02:37;;;;;;;4.50;3.33;;;21.00;99.90;;;21.28;75.42;102354.97;5053798;28;20045;-61
2022/07/11 05:05:08;;;;;;;4.38;3.28;;;20.90;99.90;;;21.35;74.98;102367.38;5052878;28;20099;-61
2022/07/11 05:07:36;;;;;;;4.43;3.00;;;20.90;99.90;;;21.37;74.97;102363.69;5053636;28;20094;-61
2022/07/11 05:10:06;;;;;;;4.18;3.38;;;20.90;99.90;;;21.14;75.42;102359.78;5053537;28;20047;-61
2022/07/11 05:12:35;;;;;;;6.93;3.75;;;20.90;99.90;;;20.94;76.81;102351.28;5054071;28;20079;-61
2022/07/11 05:15:03;;;;;;;7.00;3.42;;;20.60;99.90;;;20.83;76.88;102358.75;5053727;28;20123;-61
2022/07/11 05:17:32;;;;;;;4.45;3.65;;;20.50;99.90;;;20.86;77.27;102359.56;5053392;28;20049;-60
2022/07/11 05:20:00;;;;;;;4.40;3.28;;;20.40;99.90;;;20.94;77.14;102362.06;5053637;28;20041;-61
2022/07/11 05:22:30;;;;;;;3.92;3.33;;;20.60;99.90;;;20.68;77.77;102357.25;5053345;28;20052;-61
2022/07/11 05:24:58;;;;;;;5.93;3.70;;;20.40;99.90;;;20.80;78.11;102361.47;5053265;28;20095;-60
2022/07/11 05:27:26;;;;;;;4.40;3.30;;;20.40;99.90;;;20.87;77.66;102371.16;5053052;28;20044;-61
2022/07/11 05:29:55;;;;;;;4.75;3.50;;;20.40;99.90;;;20.72;78.24;102379.59;5053412;28;20051;-61
2022/07/11 05:32:23;;;;;;;5.63;3.45;;;20.40;99.90;;;20.81;77.96;102371.34;5053352;28;20041;-61
2022/07/11 05:34:51;;;;;;;4.28;3.58;;;20.50;99.90;;;20.88;78.02;102372.97;5053105;28;20125;-61
2022/07/11 05:37:20;;;;;;;4.80;3.10;;;20.50;99.90;;;20.93;77.92;102388.06;5053122;28;20406;-61
2022/07/11 05:39:50;;;;;;;3.58;3.28;;;20.50;99.90;;;20.91;77.50;102383.63;5052005;28;20449;-60
2022/07/11 05:42:18;;;;;;;4.20;3.45;;;20.50;99.90;;;20.96;77.51;102387.13;5053197;28;20077;-61
2022/07/11 05:44:47;;;;;;;3.63;3.33;;;20.60;99.90;;;20.98;77.33;102387.97;5053220;28;20067;-61
2022/07/11 05:47:15;;;;;;;4.03;3.35;;;20.60;99.90;;;20.99;77.73;102373.59;5052926;28;20044;-60
2022/07/11 05:49:43;;;;;;;4.40;3.72;;;20.60;99.90;;;21.05;77.60;102384.25;5052974;28;20044;-61
2022/07/11 05:52:12;;;;;;;5.95;3.60;;;20.70;99.90;;;21.06;77.53;102391.41;5052455;28;20407;-61
2022/07/11 05:54:40;;;;;;;5.88;3.42;;;20.70;99.90;;;21.09;77.54;102383.25;5052623;28;20041;-61
2022/07/11 05:57:10;;;;;;;5.53;3.58;;;20.70;99.90;;;21.13;77.48;102393.03;5051830;28;20104;-61
2022/07/11 05:59:38;;;;;;;6.50;3.70;;;20.70;99.90;;;21.15;77.28;102386.69;5052831;28;20143;-61
2022/07/11 06:02:07;;;;;;;4.00;3.30;;;20.80;99.90;;;21.18;77.28;102383.03;5052672;28;20498;-60
2022/07/11 06:04:36;;;;;;;7.07;3.50;;;20.70;99.90;;;21.22;76.95;102380.22;5052639;28;20475;-60
2022/07/11 06:07:05;;;;;;;4.30;3.45;;;20.80;99.90;;;21.23;76.76;102378.44;5052858;28;20048;-60
2022/07/11 06:09:32;;;;;;;7.43;3.40;;;20.80;99.90;;;21.28;76.77;102389.97;5052627;28;20041;-60
2022/07/11 06:12:01;;;;;;;4.47;3.70;;;20.80;99.90;;;21.27;76.74;102385.53;5051565;28;20071;-60
2022/07/11 06:14:30;;;;;;;4.15;3.72;;;20.80;99.90;;;21.28;76.71;102379.19;5052542;28;20044;-60
2022/07/11 06:16:59;;;;;;;5.38;3.97;;;20.80;99.90;;;21.28;76.50;102387.28;5052598;28;20107;-60
2022/07/11 06:19:28;;;;;;;5.40;4.00;;;20.90;99.90;;;21.34;76.71;102376.34;5052642;28;20033;-61
2022/07/11 06:21:57;;;;;;;7.88;4.38;;;20.90;99.90;;;21.37;76.73;102373.56;5052796;28;20510;-60
2022/07/11 06:24:25;;;;;;;7.43;3.80;;;20.90;99.90;;;21.36;76.79;102367.31;5052842;28;20045;-60
2022/07/11 06:26:58;;;;;;;6.47;3.80;;;21.00;99.90;;;21.39;76.62;102369.94;5053093;28;20449;-60
2022/07/11 06:29:27;;;;;;;4.53;3.50;;;21.00;99.90;;;21.45;76.33;102364.41;5052641;28;20151;-60
2022/07/11 06:31:56;;;;;;;4.00;3.58;;;21.00;99.90;;;21.47;75.96;102367.94;5053004;28;20045;-60
2022/07/11 06:34:25;;;;;;;5.53;3.90;;;21.00;99.90;;;21.36;75.88;102342.19;5052557;28;20048;-59
2022/07/11 06:36:53;;;;;;;6.55;4.32;;;21.10;99.90;;;21.48;75.80;102367.03;5052924;28;20075;-60
2022/07/11 06:39:21;;;;;;;5.80;3.90;;;21.10;99.90;;;21.49;75.93;102370.56;5052949;28;20102;-60
2022/07/11 06:41:50;;;;;;;6.45;3.70;;;21.10;99.90;;;21.53;75.90;102380.34;5052381;28;20045;-60
2022/07/11 06:44:18;;;;;;;4.88;3.38;;;21.10;99.90;;;21.51;75.66;102374.13;5052354;28;20128;-60
2022/07/11 06:46:53;;;;;;;4.60;3.83;;;21.10;99.90;;;21.54;75.83;102365.97;5052362;28;20055;-59
2022/07/11 06:49:23;;;;;;;6.30;3.95;;;21.10;99.90;;;21.60;75.99;102381.09;5052520;28;20479;-61
2022/07/11 06:51:51;;;;;;;8.90;3.80;;;21.20;99.90;;;21.62;75.90;102374.75;5052479;28;20449;-63
2022/07/11 06:54:20;;;;;;;4.95;4.25;;;21.20;99.90;;;21.61;75.64;102372.97;5052894;28;20132;-60
2022/07/11 06:56:48;;;;;;;6.28;3.90;;;21.20;99.90;;;21.71;75.76;102369.13;5052852;28;20045;-60
2022/07/11 06:59:16;;;;;;;6.20;4.10;;;21.30;99.90;;;21.73;75.21;102369.97;5052467;28;20067;-59
2022/07/11 07:01:44;;;;;;;7.40;3.95;;;21.40;99.90;;;21.77;74.88;102374.34;5055429;28;20049;-59
2022/07/11 07:04:13;;;;;;;3.92;3.13;;;21.40;99.90;;;21.76;74.63;102374.34;5055892;28;20044;-59
2022/07/11 07:06:42;;;;;;;4.28;3.50;;;21.40;99.90;;;21.81;74.10;102376.06;5055922;28;20407;-59
2022/07/11 07:09:11;;;;;;;5.35;4.10;;;21.40;99.90;;;21.79;73.90;102385.06;5055799;28;20041;-59
2022/07/11 07:11:39;;;;;;;4.80;3.28;;;21.50;99.90;;;21.81;74.24;102392.22;5055837;28;20615;-59
2022/07/11 07:14:07;;;;;;;6.28;3.20;;;21.40;99.90;;;21.83;74.42;102397.56;5055605;28;20045;-59
2022/07/11 07:16:36;;;;;;;4.57;3.72;;;21.40;99.90;;;21.82;74.50;102399.38;5055874;28;20120;-58
2022/07/11 07:19:05;;;;;;;5.70;4.32;;;21.40;99.90;;;21.79;74.29;102399.44;5055797;28;20491;-58
2022/07/11 07:21:33;;;;;;;4.57;3.83;;;21.40;99.90;;;21.60;74.33;102378.41;5055582;28;20548;-60
2022/07/11 07:24:03;;;;;;;6.75;3.55;;;21.30;99.90;;;21.78;74.71;102397.66;5055483;28;20055;-58
2022/07/11 07:26:32;;;;;;;4.57;3.75;;;21.40;99.90;;;21.83;74.49;102397.56;5055744;28;20065;-59
2022/07/11 07:29:00;;;;;;;6.43;3.97;;;21.40;99.90;;;21.62;75.03;102403.50;5055621;28;20394;-60
2022/07/11 07:31:29;;;;;;;4.68;3.45;;;21.30;99.90;;;21.64;74.96;102397.13;5055548;28;20048;-59
2022/07/11 07:33:57;;;;;;;6.00;3.55;;;21.30;99.90;;;21.56;75.09;102405.41;5054390;28;20411;-59
2022/07/11 07:36:26;;;;;;;6.75;3.42;;;21.20;99.90;;;21.25;75.75;102398.13;5055313;28;20049;-60
2022/07/11 07:38:54;;;;;;;5.50;4.28;;;21.00;99.90;;;21.38;76.66;102405.88;5054040;28;20071;-60
2022/07/11 07:41:23;;;;;;;7.30;4.03;;;21.00;99.90;;;21.51;76.38;102406.44;5055236;28;20048;-59
2022/07/11 07:43:52;;;;;;;6.55;4.20;;;21.10;99.90;;;21.58;76.36;102402.69;5055653;28;20372;-60
2022/07/11 07:46:20;;;;;;;6.82;4.15;;;21.10;99.90;;;21.62;76.32;102403.50;5055417;28;20045;-60
2022/07/11 07:48:50;;;;;;;6.40;3.80;;;21.20;99.90;;;21.70;76.09;102396.97;5055287;28;20044;-60
2022/07/11 07:51:18;;;;;;;8.48;4.43;;;21.30;99.90;;;21.67;75.83;102394.38;5053972;28;20562;-59
2022/07/11 07:53:46;;;;;;;6.40;3.72;;;21.30;99.90;;;21.59;75.87;102407.13;5054981;28;20479;-59
2022/07/11 07:56:25;;;;;;;5.15;4.00;;;21.20;99.90;;;21.73;76.05;102396.91;5055397;28;20045;-59
2022/07/11 07:58:53;;;;;;;4.75;3.70;;;21.30;99.90;;;21.76;75.52;102393.22;5054874;28;20041;-59
2022/07/11 08:04:05;;;;;;;5.68;3.33;;;21.40;99.90;;;21.81;75.12;102403.00;5052297;28;20060;-59
2022/07/11 08:06:35;;;;;;;5.10;3.63;;;21.40;99.90;;;21.82;74.83;102402.06;5053540;28;20065;-59
2022/07/11 08:09:04;;;;;;;4.13;3.65;;;21.40;99.90;;;21.65;74.59;102390.81;5054567;28;20053;-59
2022/07/11 08:11:34;;;;;;;6.35;3.40;;;21.40;99.90;;;21.81;74.85;102404.81;5053600;28;20555;-59
2022/07/11 08:14:04;;;;;;;7.60;3.75;;;21.40;99.90;;;21.66;74.52;102375.56;5054466;28;20502;-60
2022/07/11 08:16:33;;;;;;;4.18;3.67;;;21.40;99.90;;;21.51;74.11;102404.63;5054757;28;20055;-59
2022/07/11 08:19:04;;;;;;;4.00;3.53;;;21.30;99.90;;;21.51;75.26;102398.34;5054640;28;20068;-59
2022/07/11 08:21:33;;;;;;;;;;;21.20;99.90;;;21.67;75.77;102402.44;5054864;28;20569;-59
2022/07/11 08:24:02;;;;;;;4.68;3.65;;;21.30;99.90;;;21.74;75.57;102404.03;5054302;28;19920;-59
2022/07/11 08:26:32;;;;;;;3.60;3.30;;;21.40;99.90;;;21.76;75.52;102402.19;5054218;28;20049;-59
2022/07/11 08:29:02;;;;;;;4.72;3.00;;;21.40;99.90;;;21.89;74.57;102403.66;5054611;28;20061;-59
2022/07/11 08:31:31;;;;;;;5.35;3.70;;;21.50;99.90;;;21.93;74.28;102416.13;5054544;28;20041;-59
2022/07/11 08:34:01;;;;;;;3.63;3.33;;;21.50;99.90;;;21.37;73.79;102317.03;5054143;28;20041;-59
2022/07/11 08:36:30;;;;;;;5.05;3.50;;;21.60;99.90;;;21.39;75.41;102418.41;5054398;28;20287;-59
2022/07/11 08:39:00;;;;;;;4.40;2.95;;;21.20;99.90;;;21.68;75.43;102414.97;5054055;28;20071;-59
2022/07/11 08:41:28;;;;;;;5.45;3.35;;;21.30;99.90;;;21.83;75.33;102425.41;5054110;28;20099;-60
2022/07/11 08:43:59;;;;;;;3.92;3.28;;;21.40;99.90;;;21.92;74.67;102409.00;5054067;28;20045;-59
2022/07/11 08:46:30;;;;;;;5.03;3.58;;;21.50;99.90;;;22.11;74.61;102420.16;5054322;28;20478;-59
2022/07/11 08:49:00;;;;;;;;;;;21.70;99.90;;;21.59;74.08;102302.09;5054357;28;20045;-60
2022/07/11 08:51:29;;;;;;;4.90;3.22;;;21.90;99.90;;;22.34;73.44;102420.41;5053988;28;19924;-59
2022/07/11 08:53:57;;;;;;;3.40;3.10;;;22.00;99.90;;;22.22;72.32;102405.44;5053811;28;20047;-60
2022/07/11 08:56:29;;;;;;;5.28;4.75;;;21.90;99.90;;;22.32;72.50;102417.75;5053844;28;20041;-59
2022/07/11 08:59:00;;;;;;;17.75;15.90;;;22.00;99.90;;;22.31;72.71;102386.34;5053808;28;20401;-59
2022/07/11 09:01:31;;;;;;;4.68;3.20;;;22.00;99.90;;;22.46;72.18;102417.34;5053680;28;20053;-59
2022/07/11 09:04:00;;;;;;;4.57;3.67;;;22.10;99.90;;;22.57;72.19;102406.31;5053977;28;20056;-59
2022/07/11 09:06:29;;;;;;;5.67;3.43;;;22.20;99.90;;;22.40;71.45;102410.34;5053867;28;20060;-59
2022/07/11 09:09:00;;;;;;;3.35;3.05;;;22.20;99.90;;;22.57;71.57;102406.31;5052623;28;20181;-59
2022/07/11 09:11:31;;;;;;;4.18;3.28;;;22.20;99.90;;;22.64;71.05;102406.06;5053524;28;20041;-59
2022/07/11 09:14:00;;;;;;;3.53;3.10;;;22.30;99.90;;;22.56;71.46;102401.78;5053577;28;20052;-59
2022/07/11 09:16:30;;;;;;;4.30;3.28;;;22.30;99.90;;;22.23;72.36;102400.94;5053710;28;20040;-59
2022/07/11 09:19:00;;;;;;;5.05;3.30;;;22.00;99.90;;;22.55;72.46;102400.03;5053427;28;20128;-59
2022/07/11 09:27:00;;;;;;;7.75;3.40;;;22.20;99.90;;;22.61;71.14;102399.88;5053522;28;20103;-60
2022/07/11 09:29:30;;;;;;;5.85;3.45;;;22.30;99.90;;;22.63;70.96;102404.28;5053166;28;20410;-59
2022/07/11 09:31:58;;;;;;;4.53;3.03;;;22.30;99.90;;;22.88;70.55;102399.06;5053819;28;20045;-60
2022/07/11 09:34:28;;;;;;;3.65;3.35;;;22.50;99.90;;;23.05;69.50;102400.28;5053093;28;20048;-59
2022/07/11 09:36:57;;;;;;;4.23;3.23;;;22.70;99.90;;;23.15;69.07;102392.78;5053195;28;20049;-59
2022/07/11 09:39:28;;;;;;;3.05;2.63;;;22.80;99.90;;;23.37;68.68;102404.69;5053365;28;20283;-59
2022/07/11 09:41:57;;;;;;;3.28;2.90;;;22.90;99.90;;;23.53;68.77;102408.66;5053475;28;20048;-59
2022/07/11 09:44:28;;;;;;;4.10;3.23;;;23.20;99.90;;;23.65;68.15;102420.88;5053369;28;20053;-59
2022/07/11 09:46:58;;;;;;;3.35;3.05;;;23.30;99.90;;;23.18;67.23;102311.66;5053317;28;20045;-59
2022/07/11 09:49:33;;;;;;;3.05;2.72;;;23.40;99.90;;;23.82;66.28;102413.94;5053279;28;20033;-59
2022/07/11 09:52:19;;;;;;;3.75;3.17;;;23.50;99.90;;;23.99;65.92;102414.25;5052940;28;20049;-59
2022/07/11 09:54:56;;;;;;;4.10;3.00;;;23.60;99.90;;;24.00;65.10;102417.84;5052973;28;20127;-59
2022/07/11 09:57:32;;;;;;;3.17;2.80;;;23.70;99.90;;;24.09;64.64;102415.72;5052288;28;20143;-59
2022/07/11 10:00:01;;;;;;;3.25;2.95;;;23.80;99.90;;;24.20;65.24;102417.16;5053008;28;20457;-60
2022/07/11 10:02:33;;;;;;;2.92;2.60;;;23.90;99.90;;;24.33;63.93;102408.50;5052876;28;20122;-59
2022/07/11 10:05:02;;;;;;;4.05;2.90;;;24.00;99.90;;;24.25;63.35;102409.75;5052959;28;20046;-59
2022/07/11 10:07:31;;;;;;;2.60;2.40;;;24.00;99.90;;;24.42;64.28;102410.91;5053185;28;20033;-60
2022/07/11 10:10:02;;;;;;;3.90;2.88;;;24.10;99.90;;;24.40;62.61;102407.38;5053391;28;20128;-60
2022/07/11 10:12:31;;;;;;;5.28;3.13;;;24.10;99.90;;;24.40;62.61;102410.06;5051897;28;20056;-59
2022/07/11 10:15:03;;;;;;;3.22;2.55;;;24.10;99.90;;;24.58;63.26;102403.09;5051702;28;20498;-59
2022/07/11 10:17:49;;;;;;;4.07;2.78;;;24.20;99.90;;;24.47;61.44;102408.00;5052962;28;20236;-56
2022/07/11 10:20:28;;;;;;;3.00;2.67;;;24.20;99.90;;;24.63;61.88;102399.25;5052745;28;20041;-55
2022/07/11 10:23:07;;;;;;;3.63;2.40;;;24.30;99.90;;;24.62;61.05;102402.03;5052759;28;20427;-57
2022/07/11 10:25:43;;;;;;;3.08;2.35;;;24.30;99.90;;;24.70;61.15;102402.63;5052751;28;20124;-56
2022/07/11 10:28:25;;;;;;;3.88;2.75;;;24.40;99.90;;;24.44;61.80;102375.66;5052850;28;20041;-59
2022/07/11 10:30:59;;;;;;;3.58;2.70;;;24.30;99.90;;;24.58;61.46;102398.56;5052879;28;20087;-61